Time;durP1;ratioP1;P1;durP2;ratioP2;P2;SDS_P1;SDS_P2;PMS_P1;PMS_P2;Temp;Humidity;BMP_temperature;BMP_pressure;BME280_temperature;BME280_humidity;BME280_pressure;Samples;Min_cycle;Max_cycle;Signal;HPM_P1;HPM_P2
2022/03/01 00:00:05;;;;;;;14.25;7.35;;;2.70;59.90;;;;;;4937725;29;20139;-83
2022/03/01 04:46:18;;;;;;;17.08;8.40;;;0.00;91.00;;;;;;6098667;23;20021;31
2022/03/01 04:48:45;;;;;;;16.70;8.45;;;0.00;91.00;;;;;;4926380;29;20139;-82
2022/03/01 04:51:21;;;;;;;16.95;8.50;;;-0.10;91.10;;;;;;4930901;29;20083;-81
2022/03/01 04:53:49;;;;;;;16.30;8.55;;;-0.20;91.30;;;;;;4940635;29;20473;-81
2022/03/01 04:56:16;;;;;;;15.15;8.05;;;-0.30;91.50;;;;;;4946842;29;20106;-80
2022/03/01 04:58:44;;;;;;;16.90;8.40;;;-0.30;91.80;;;;;;4953157;28;20048;-80
2022/03/01 05:01:12;;;;;;;15.73;8.00;;;-0.30;92.00;;;;;;4954199;29;20047;-80
2022/03/01 05:03:42;;;;;;;17.88;7.88;;;-0.30;92.20;;;;;;4956634;29;20078;-81
2022/03/01 05:06:11;;;;;;;19.25;8.95;;;-0.30;92.20;;;;;;4948267;29;20076;-82
2022/03/01 05:09:22;;;;;;;16.92;8.80;;;-0.30;92.10;;;;;;4956213;29;20044;-81
2022/03/01 05:11:50;;;;;;;17.52;8.57;;;-0.30;92.10;;;;;;4958396;29;20051;-81
2022/03/01 05:14:18;;;;;;;16.45;8.65;;;-0.30;91.90;;;;;;4974239;29;20062;-81
2022/03/01 05:16:50;;;;;;;18.65;8.70;;;-0.40;91.90;;;;;;4975999;29;20386;-80
2022/03/01 05:19:19;;;;;;;17.52;8.55;;;-0.40;92.00;;;;;;5058101;23;20814;-79
2022/03/01 05:21:46;;;;;;;17.58;8.77;;;-0.40;92.50;;;;;;4985918;28;20055;-79
2022/03/01 05:24:14;;;;;;;16.20;8.07;;;-0.40;92.30;;;;;;4978979;28;20399;-79
2022/03/01 05:26:41;;;;;;;17.30;9.05;;;-0.50;92.40;;;;;;4968390;28;20046;-85
2022/03/01 05:29:08;;;;;;;16.67;8.65;;;-0.40;92.40;;;;;;4966028;28;20154;-81
2022/03/01 05:31:35;;;;;;;19.23;9.82;;;-0.50;92.30;;;;;;4970191;28;20044;-81
2022/03/01 05:34:02;;;;;;;15.18;8.13;;;-0.60;92.20;;;;;;4966461;28;20051;-81
2022/03/01 05:36:31;;;;;;;17.08;8.02;;;-0.70;92.50;;;;;;4977190;28;20110;-80
2022/03/01 05:38:58;;;;;;;17.55;8.70;;;-0.80;92.70;;;;;;4979824;28;20053;-83
2022/03/01 05:41:25;;;;;;;16.55;8.05;;;-0.80;93.10;;;;;;4982927;28;20518;-82
2022/03/01 05:43:52;;;;;;;16.90;8.25;;;-0.80;93.30;;;;;;4987233;28;20492;-79
2022/03/01 05:46:19;;;;;;;16.60;8.40;;;-0.80;93.70;;;;;;4988561;28;20054;-80
2022/03/01 05:48:47;;;;;;;16.13;8.50;;;-0.80;93.50;;;;;;4988325;28;20133;-82
2022/03/01 05:51:14;;;;;;;16.45;8.23;;;-0.80;93.50;;;;;;4988945;28;20479;-80
2022/03/01 05:53:42;;;;;;;16.75;8.93;;;-0.80;93.50;;;;;;4991605;28;20150;-82
2022/03/01 05:56:09;;;;;;;16.60;9.00;;;-0.70;93.40;;;;;;4991956;28;20051;-82
2022/03/01 05:58:36;;;;;;;18.27;8.82;;;-0.70;93.10;;;;;;4991161;28;20066;-81
2022/03/01 06:01:04;;;;;;;17.88;9.27;;;-0.70;92.70;;;;;;4993800;28;20110;-80
2022/03/01 06:03:31;;;;;;;17.33;8.80;;;-0.80;92.70;;;;;;4994914;28;20082;-80
2022/03/01 06:05:58;;;;;;;16.50;8.38;;;-0.80;92.90;;;;;;4994426;28;20107;-81
2022/03/01 06:08:24;;;;;;;18.85;8.93;;;-0.90;93.10;;;;;;4994763;28;20086;-82
2022/03/01 06:10:53;;;;;;;16.38;8.13;;;-0.90;93.30;;;;;;4994334;28;20078;-83
2022/03/01 06:13:20;;;;;;;18.05;8.90;;;-0.90;93.30;;;;;;4994674;28;20106;-81
2022/03/01 06:15:48;;;;;;;17.52;9.13;;;-0.90;93.30;;;;;;4994173;28;20075;-82
2022/03/01 06:18:15;;;;;;;18.92;9.32;;;-0.90;93.50;;;;;;4993636;28;20074;-83
2022/03/01 06:20:43;;;;;;;18.90;9.27;;;-1.00;93.20;;;;;;4993958;28;20055;-85
2022/03/01 06:23:11;;;;;;;16.80;8.93;;;-1.10;93.10;;;;;;4995663;28;20106;-87
2022/03/01 06:25:40;;;;;;;19.33;9.50;;;-1.20;93.50;;;;;;4994669;28;20082;-82
2022/03/01 06:28:09;;;;;;;20.25;10.55;;;-1.40;94.00;;;;;;4991087;28;20107;-82
2022/03/01 06:30:36;;;;;;;20.90;9.83;;;-1.50;94.60;;;;;;4990420;28;20110;-78
2022/03/01 06:33:03;;;;;;;21.38;9.65;;;-1.60;94.80;;;;;;4989893;28;20138;-82
2022/03/01 06:35:31;;;;;;;19.57;9.57;;;-1.70;95.30;;;;;;4989439;28;20134;-81
2022/03/01 06:37:58;;;;;;;19.00;9.53;;;-1.70;95.70;;;;;;4990922;28;20556;-80
2022/03/01 06:40:28;;;;;;;17.23;9.37;;;-1.70;95.80;;;;;;4990567;28;20047;-81
2022/03/01 06:42:56;;;;;;;21.80;9.73;;;-1.60;95.90;;;;;;4989718;28;20046;-81
2022/03/01 06:45:24;;;;;;;19.50;9.07;;;-1.60;96.00;;;;;;4987675;28;20102;-82
2022/03/01 06:47:51;;;;;;;20.23;8.87;;;-1.50;95.90;;;;;;4989689;28;20050;-81
2022/03/01 06:50:19;;;;;;;22.80;9.65;;;-1.40;95.80;;;;;;4986846;28;20562;-82
2022/03/01 06:52:46;;;;;;;19.52;8.93;;;-1.40;95.80;;;;;;4984542;28;20137;-81
2022/03/01 06:55:14;;;;;;;18.27;9.35;;;-1.30;95.60;;;;;;4987032;28;20551;-80
2022/03/01 06:57:42;;;;;;;18.35;8.77;;;-1.20;95.10;;;;;;4987220;28;20114;-82
2022/03/01 07:00:12;;;;;;;19.40;9.18;;;-1.30;95.00;;;;;;4985578;28;20112;-81
2022/03/01 07:02:41;;;;;;;22.73;10.57;;;-1.30;95.50;;;;;;4987430;28;20141;-81
2022/03/01 07:05:10;;;;;;;18.05;8.95;;;-1.40;95.50;;;;;;4983486;28;20053;-81
2022/03/01 07:07:38;;;;;;;16.90;8.47;;;-1.30;95.60;;;;;;4986335;28;20567;-81
2022/03/01 07:10:07;;;;;;;17.85;9.32;;;-1.30;95.70;;;;;;4983900;28;20111;-80
2022/03/01 07:12:34;;;;;;;20.33;9.63;;;-1.20;95.80;;;;;;4983137;28;20159;-82
2022/03/01 07:15:02;;;;;;;19.52;10.80;;;-1.10;95.70;;;;;;4985065;28;20047;-80
2022/03/01 07:17:29;;;;;;;18.67;9.90;;;-1.00;95.30;;;;;;4984027;28;20053;-80
2022/03/01 07:19:57;;;;;;;19.05;10.13;;;-1.00;95.20;;;;;;4980495;28;20150;-80
2022/03/01 07:22:25;;;;;;;21.60;10.57;;;-1.00;95.50;;;;;;4988480;28;20118;-80
2022/03/01 07:24:52;;;;;;;21.60;10.45;;;-0.90;95.30;;;;;;4987775;28;20050;-84
2022/03/01 07:27:19;;;;;;;24.08;10.27;;;-0.90;95.20;;;;;;4989753;28;20145;-80
2022/03/01 07:29:46;;;;;;;23.95;11.68;;;-0.80;95.00;;;;;;4988295;28;20133;-80
2022/03/01 07:32:13;;;;;;;20.63;10.77;;;-0.80;95.00;;;;;;4991165;28;20074;-84
2022/03/01 07:34:41;;;;;;;19.38;10.13;;;-0.80;95.10;;;;;;4988109;28;20110;-83
2022/03/01 07:37:09;;;;;;;19.45;9.38;;;-0.70;95.10;;;;;;4989316;28;20050;-82
2022/03/01 07:39:37;;;;;;;19.98;10.27;;;-0.60;95.10;;;;;;4989369;28;20058;-83
2022/03/01 07:42:05;;;;;;;21.65;11.02;;;-0.50;94.70;;;;;;4990070;28;20053;-79
2022/03/01 07:44:36;;;;;;;23.02;10.93;;;-0.50;94.30;;;;;;4983782;28;20093;-81
2022/03/01 07:47:06;;;;;;;19.58;9.88;;;-0.50;94.40;;;;;;4983030;28;20058;-80
2022/03/01 07:49:33;;;;;;;21.10;10.52;;;-0.50;94.60;;;;;;4986930;28;20047;-80
2022/03/01 07:52:02;;;;;;;18.80;10.05;;;-0.40;94.60;;;;;;4976024;28;20111;-81
2022/03/01 07:54:30;;;;;;;19.70;9.68;;;-0.40;94.50;;;;;;4971200;29;20055;-81
2022/03/01 07:56:57;;;;;;;22.48;10.23;;;-0.20;94.30;;;;;;4968880;29;20106;-82
2022/03/01 08:01:54;;;;;;;19.25;10.07;;;0.00;93.70;;;;;;4964940;23;20058;-82
2022/03/01 08:04:21;;;;;;;19.88;10.40;;;0.00;93.40;;;;;;4970702;29;20075;-82
2022/03/01 08:06:49;;;;;;;21.25;9.90;;;0.20;93.10;;;;;;4970245;28;20126;-79
2022/03/01 08:09:16;;;;;;;19.17;9.60;;;0.20;92.60;;;;;;4966252;29;20058;-81
2022/03/01 08:11:45;;;;;;;20.92;10.38;;;0.30;92.50;;;;;;4967138;29;20085;-83
2022/03/01 08:14:12;;;;;;;21.98;10.98;;;0.40;92.50;;;;;;4967614;28;20057;-81
2022/03/01 08:16:39;;;;;;;20.17;10.25;;;0.50;92.60;;;;;;4970750;29;20118;-81
2022/03/01 08:19:06;;;;;;;21.63;10.57;;;0.60;92.80;;;;;;4970525;28;20106;-80
2022/03/01 08:21:33;;;;;;;23.42;11.18;;;0.70;92.40;;;;;;4977918;28;20042;-82
2022/03/01 08:24:00;;;;;;;20.00;10.43;;;0.70;92.20;;;;;;4988446;28;20110;-82
2022/03/01 08:26:28;;;;;;;20.35;10.50;;;0.80;91.80;;;;;;4987702;28;20118;-80
2022/03/01 08:28:56;;;;;;;23.98;12.23;;;0.90;91.90;;;;;;4986271;28;20047;-81
2022/03/01 08:31:23;;;;;;;29.98;13.32;;;1.00;91.50;;;;;;4985620;28;20137;-80
2022/03/01 08:33:50;;;;;;;23.65;11.55;;;1.00;91.40;;;;;;4984639;28;20415;-81
2022/03/01 08:36:17;;;;;;;21.73;11.48;;;1.00;91.40;;;;;;4985233;28;20133;-81
2022/03/01 08:38:44;;;;;;;21.42;10.98;;;1.10;91.30;;;;;;4976990;28;20070;-83
2022/03/01 08:41:11;;;;;;;20.58;10.48;;;1.20;91.20;;;;;;4988584;28;20107;-80
2022/03/01 08:43:38;;;;;;;18.88;9.90;;;1.20;91.00;;;;;;4974545;28;20127;-81
2022/03/01 08:46:10;;;;;;;20.00;9.77;;;1.30;90.90;;;;;;4971398;28;20044;-83
2022/03/01 08:48:37;;;;;;;19.15;9.52;;;1.40;90.60;;;;;;4976518;28;20158;-83
2022/03/01 08:51:05;;;;;;;18.95;8.90;;;1.50;90.20;;;;;;4979417;28;20057;-80
2022/03/01 08:53:32;;;;;;;17.88;9.30;;;1.50;90.10;;;;;;4977059;28;20054;-81
2022/03/01 08:55:59;;;;;;;17.00;8.32;;;1.60;89.50;;;;;;4972603;28;20256;-80
2022/03/01 08:58:27;;;;;;;15.50;7.63;;;1.70;88.50;;;;;;4975634;28;20061;-81
2022/03/01 09:00:54;;;;;;;13.65;7.30;;;1.80;87.70;;;;;;4964398;28;20119;-83
2022/03/01 09:03:23;;;;;;;12.63;7.75;;;1.80;86.70;;;;;;4963217;28;20053;-84
2022/03/01 09:05:50;;;;;;;15.98;7.85;;;1.90;85.50;;;;;;4963647;29;20111;-81
2022/03/01 09:08:17;;;;;;;16.88;7.38;;;2.00;84.10;;;;;;4979468;28;20543;-81
2022/03/01 09:10:45;;;;;;;13.13;6.82;;;2.10;83.20;;;;;;4975162;28;20414;-82
2022/03/01 09:13:12;;;;;;;15.20;7.25;;;2.20;82.10;;;;;;4971192;28;20057;-82
2022/03/01 09:15:39;;;;;;;14.35;7.30;;;2.20;80.80;;;;;;4982159;28;20058;-81
2022/03/01 09:18:07;;;;;;;12.88;7.22;;;2.30;80.00;;;;;;4970257;28;20133;-81
2022/03/01 09:20:36;;;;;;;12.80;7.13;;;2.40;79.40;;;;;;4971057;28;20079;-80
2022/03/01 09:23:03;;;;;;;13.13;7.43;;;2.40;78.70;;;;;;4962421;29;20051;-81
2022/03/01 09:25:31;;;;;;;13.32;7.25;;;2.50;78.00;;;;;;4970460;28;20552;-81
2022/03/01 09:27:58;;;;;;;14.15;7.90;;;2.60;77.20;;;;;;4980936;28;20147;-82
2022/03/01 09:30:25;;;;;;;14.07;7.10;;;2.70;76.00;;;;;;4980964;28;20097;-84
2022/03/01 09:32:53;;;;;;;13.32;7.32;;;2.80;75.90;;;;;;4978069;28;20121;-81
2022/03/01 09:35:21;;;;;;;13.65;7.07;;;2.80;75.20;;;;;;4962591;28;20054;-83
2022/03/01 09:37:49;;;;;;;14.70;7.38;;;2.90;74.70;;;;;;4969571;28;20399;-84
2022/03/01 09:40:17;;;;;;;12.38;6.85;;;3.00;74.10;;;;;;4980547;28;20520;-82
2022/03/01 09:42:45;;;;;;;14.02;7.43;;;3.00;73.50;;;;;;4981544;28;20054;-80
2022/03/01 09:45:14;;;;;;;14.70;7.32;;;3.10;72.80;;;;;;4981431;28;20074;-80
2022/03/01 09:47:42;;;;;;;13.20;7.32;;;3.20;72.40;;;;;;4980348;28;20047;-83
2022/03/01 09:50:12;;;;;;;14.48;7.93;;;3.30;72.40;;;;;;4981059;28;20088;-83
2022/03/01 09:52:40;;;;;;;14.38;7.03;;;3.40;77.60;;;;;;4979868;28;20123;-80
2022/03/01 09:55:10;;;;;;;12.68;7.10;;;3.50;73.90;;;;;;4980637;28;20059;-84
2022/03/01 09:57:38;;;;;;;12.77;6.70;;;3.50;71.70;;;;;;4973654;28;20552;-83
2022/03/01 10:00:08;;;;;;;13.30;6.90;;;3.60;70.70;;;;;;4961862;28;20086;-82
2022/03/01 10:02:38;;;;;;;11.43;6.03;;;3.70;70.30;;;;;;4960114;29;20055;-81
2022/03/01 10:05:07;;;;;;;10.30;5.97;;;3.90;71.60;;;;;;4959962;28;20043;-80
2022/03/01 10:07:34;;;;;;;13.20;6.07;;;4.10;80.10;;;;;;4968929;28;20059;-79
2022/03/01 10:10:09;;;;;;;12.32;6.15;;;4.30;85.50;;;;;;4975358;28;20046;-83
2022/03/01 10:12:38;;;;;;;11.18;5.80;;;;;;;;;;4975558;28;20488;-81
2022/03/01 10:15:10;;;;;;;10.75;5.65;;;;;;;;;;4973321;28;20399;-81
2022/03/01 10:17:40;;;;;;;10.70;5.95;;;;;;;;;;4975269;28;20563;-86
2022/03/01 10:20:09;;;;;;;13.20;6.88;;;;;;;;;;4973472;28;20047;-82
2022/03/01 10:22:39;;;;;;;10.52;5.82;;;;;;;;;;4964395;28;20055;-82
2022/03/01 10:25:09;;;;;;;11.27;5.65;;;;;;;;;;4952887;28;20059;-83
2022/03/01 10:27:37;;;;;;;11.48;5.68;;;;;;;;;;4962221;28;20126;-80
2022/03/01 10:30:09;;;;;;;9.80;5.28;;;;;;;;;;4973003;28;20173;-83
2022/03/01 10:32:37;;;;;;;9.90;5.28;;;;;;;;;;4976441;28;20578;-83
2022/03/01 10:35:07;;;;;;;13.00;5.45;;;;;;;;;;4974908;28;20098;-82
2022/03/01 10:37:36;;;;;;;10.70;5.20;;;;;;;;;;4976767;28;20050;-78
2022/03/01 10:40:18;;;;;;;8.95;5.13;;;;;;;;;;4974822;28;20141;-83
2022/03/01 10:42:46;;;;;;;8.70;5.10;;;5.10;51.50;;;;;;4974501;28;20492;-81
2022/03/01 10:45:14;;;;;;;8.20;4.90;;;5.30;52.40;;;;;;4975276;28;20510;-80
2022/03/01 10:47:52;;;;;;;8.30;5.05;;;5.30;52.30;;;;;;4973113;28;20055;-79
2022/03/01 10:50:19;;;;;;;10.93;5.55;;;5.40;52.10;;;;;;4974923;28;20047;-83
2022/03/01 10:52:47;;;;;;;9.98;5.22;;;5.40;52.10;;;;;;4966517;28;20576;-80
2022/03/01 10:55:28;;;;;;;9.32;5.22;;;5.50;52.20;;;;;;4955305;29;20061;-80
2022/03/01 10:58:05;;;;;;;9.10;4.78;;;5.50;52.10;;;;;;4954798;28;20054;-82
2022/03/01 11:00:35;;;;;;;9.88;5.07;;;5.60;52.70;;;;;;4955061;29;20516;-81
2022/03/01 11:03:04;;;;;;;10.38;5.28;;;5.60;51.50;;;;;;4955123;29;20142;-83
2022/03/01 11:05:32;;;;;;;10.07;4.82;;;5.60;50.50;;;;;;4955179;29;20408;-83
2022/03/01 11:08:04;;;;;;;8.70;4.45;;;5.70;50.10;;;;;;4958552;28;20499;-79
2022/03/01 11:10:33;;;;;;;9.18;4.70;;;5.80;49.90;;;;;;4972998;28;20054;-81
2022/03/01 11:13:01;;;;;;;9.40;5.05;;;5.80;49.00;;;;;;4974060;28;20502;-80
2022/03/01 11:15:48;;;;;;;9.57;4.63;;;5.90;48.50;;;;;;4973700;28;20066;-82
2022/03/01 11:18:33;;;;;;;10.45;5.60;;;5.90;48.50;;;;;;4974474;28;20056;-80
2022/03/01 11:21:05;;;;;;;8.93;4.88;;;6.00;47.60;;;;;;4972670;28;20528;-80
2022/03/01 11:23:33;;;;;;;8.23;4.43;;;6.10;47.10;;;;;;4975382;28;20054;-79
2022/03/01 11:26:10;;;;;;;8.13;4.50;;;6.20;47.40;;;;;;4974890;28;20066;-82
2022/03/01 11:28:41;;;;;;;8.65;4.38;;;6.20;47.40;;;;;;4973626;28;20058;-79
2022/03/01 11:31:23;;;;;;;8.90;4.45;;;6.30;47.10;;;;;;4971336;28;20141;-80
2022/03/01 11:33:59;;;;;;;9.13;4.78;;;6.40;46.20;;;;;;4974504;28;20054;-81
2022/03/01 11:36:30;;;;;;;8.43;4.72;;;6.40;46.20;;;;;;4974925;28;20134;-78
2022/03/01 11:39:09;;;;;;;9.05;5.00;;;6.50;47.40;;;;;;4974007;28;20129;-78
2022/03/01 11:41:46;;;;;;;9.25;4.45;;;6.70;50.10;;;;;;4972786;28;20142;-74
2022/03/01 11:44:18;;;;;;;11.68;5.40;;;6.80;50.70;;;;;;4973578;28;20416;-75
2022/03/01 11:46:48;;;;;;;8.75;4.57;;;6.90;50.00;;;;;;4974048;28;20058;-77
2022/03/01 11:49:19;;;;;;;9.43;4.95;;;7.00;50.30;;;;;;4972306;28;20409;-75
2022/03/01 11:51:49;;;;;;;9.90;5.65;;;7.10;50.00;;;;;;4974306;28;20050;-76
2022/03/01 11:54:21;;;;;;;9.95;5.72;;;7.30;50.30;;;;;;4973393;28;20072;-81
2022/03/01 11:56:53;;;;;;;10.00;5.55;;;7.40;50.00;;;;;;4968633;28;20050;-81
2022/03/01 11:59:22;;;;;;;12.43;6.50;;;7.50;48.50;;;;;;4966131;28;20061;-81
2022/03/01 12:01:51;;;;;;;9.75;5.88;;;7.50;47.60;;;;;;4974213;28;20338;-81
2022/03/01 12:04:22;;;;;;;10.07;5.40;;;7.50;47.60;;;;;;4957660;28;20130;-79
2022/03/01 12:06:54;;;;;;;9.43;5.60;;;7.60;46.60;;;;;;4956965;29;20489;-80
2022/03/01 12:09:23;;;;;;;13.73;6.53;;;7.60;46.60;;;;;;4951625;29;20055;-80
2022/03/01 12:12:05;;;;;;;9.73;5.63;;;7.70;47.10;;;;;;4960096;28;20059;-79
2022/03/01 12:14:34;;;;;;;12.75;6.05;;;7.80;46.30;;;;;;4972590;28;20050;-82
2022/03/01 12:17:02;;;;;;;9.45;5.60;;;7.90;46.10;;;;;;4972561;28;20054;-80
2022/03/01 12:19:33;;;;;;;9.75;5.25;;;8.00;46.40;;;;;;4972647;28;20555;-82
2022/03/01 12:22:04;;;;;;;10.73;5.85;;;8.20;46.50;;;;;;4971349;28;20117;-76
2022/03/01 12:24:32;;;;;;;9.10;5.32;;;8.40;45.50;;;;;;4973259;28;20063;-82
2022/03/01 12:27:03;;;;;;;9.43;5.20;;;8.60;44.90;;;;;;4972641;28;20456;-78
2022/03/01 12:29:35;;;;;;;9.75;5.57;;;8.80;45.10;;;;;;4959243;28;20473;-80
2022/03/01 12:32:06;;;;;;;9.10;5.63;;;9.00;44.80;;;;;;4953895;28;20070;-82
2022/03/01 12:34:36;;;;;;;10.80;5.78;;;9.10;43.70;;;;;;4955396;28;20050;-76
2022/03/01 12:37:07;;;;;;;9.77;5.50;;;9.20;43.10;;;;;;4953120;29;20047;-77
2022/03/01 12:39:36;;;;;;;10.48;6.45;;;9.40;43.10;;;;;;4951493;29;20130;-82
2022/03/01 12:42:07;;;;;;;8.90;5.35;;;9.50;41.70;;;;;;4966516;28;20492;-80
2022/03/01 12:44:35;;;;;;;10.07;5.68;;;9.50;41.90;;;;;;4972487;28;20402;-79
2022/03/01 12:47:05;;;;;;;9.65;5.68;;;9.60;41.60;;;;;;4972419;28;20150;-79
2022/03/01 12:49:36;;;;;;;9.30;5.45;;;9.70;41.50;;;;;;4955783;28;20071;-81
2022/03/01 12:52:04;;;;;;;8.75;5.53;;;9.70;41.90;;;;;;4973195;28;20524;-80
2022/03/01 12:54:31;;;;;;;8.07;5.07;;;9.90;42.10;;;;;;4974543;28;20057;-81
2022/03/01 12:57:00;;;;;;;8.77;5.30;;;10.10;42.30;;;;;;4974763;28;20050;-79
2022/03/01 12:59:32;;;;;;;9.55;5.38;;;10.10;41.80;;;;;;4974703;28;20061;-79
2022/03/01 13:02:02;;;;;;;9.45;5.80;;;10.20;41.40;;;;;;4974715;28;20051;-81
2022/03/01 13:04:34;;;;;;;10.15;6.28;;;10.40;41.40;;;;;;4955235;29;20062;-80
2022/03/01 13:07:01;;;;;;;10.52;6.03;;;10.50;40.80;;;;;;4955024;29;20047;-81
2022/03/01 13:09:28;;;;;;;13.65;5.93;;;10.60;40.50;;;;;;4955613;29;20465;-80
2022/03/01 13:11:56;;;;;;;9.85;5.75;;;10.70;40.70;;;;;;4955493;29;20130;-81
2022/03/01 13:14:24;;;;;;;9.88;6.05;;;10.90;40.70;;;;;;4955504;29;20043;-80
2022/03/01 13:16:56;;;;;;;8.65;5.80;;;11.20;40.50;;;;;;4954920;29;20055;-80
2022/03/01 13:19:28;;;;;;;8.40;5.65;;;11.40;39.90;;;;;;4955259;29;20057;-80
2022/03/01 13:21:58;;;;;;;10.65;6.32;;;11.60;40.30;;;;;;4955545;29;20094;-80
2022/03/01 13:24:29;;;;;;;9.77;5.78;;;11.70;39.00;;;;;;4968828;28;20374;-81
2022/03/01 13:26:58;;;;;;;15.18;8.48;;;11.80;37.80;;;;;;4974605;28;20101;-78
2022/03/01 13:29:29;;;;;;;12.75;7.50;;;11.90;37.80;;;;;;4974397;28;20153;-81
2022/03/01 13:32:07;;;;;;;10.00;6.18;;;12.00;38.40;;;;;;4964277;28;20583;-77
2022/03/01 13:34:35;;;;;;;9.45;5.70;;;12.20;37.80;;;;;;4954474;29;20138;-80
2022/03/01 13:37:09;;;;;;;9.10;5.75;;;12.40;38.00;;;;;;4954673;29;20057;-80
2022/03/01 13:39:38;;;;;;;9.95;6.35;;;12.60;37.70;;;;;;4955474;29;20416;-79
2022/03/01 13:42:07;;;;;;;9.48;5.90;;;12.70;36.70;;;;;;4955515;29;20053;-79
2022/03/01 13:44:36;;;;;;;9.50;6.07;;;13.00;36.90;;;;;;4955277;29;20051;-81
2022/03/01 13:47:12;;;;;;;9.73;6.10;;;13.00;36.00;;;;;;4955153;29;20536;-81
2022/03/01 13:49:41;;;;;;;9.77;6.05;;;13.10;36.60;;;;;;4971606;28;20047;-77
2022/03/01 13:52:13;;;;;;;9.35;5.95;;;13.30;36.50;;;;;;4974167;28;20055;-80
2022/03/01 13:54:43;;;;;;;9.07;5.53;;;13.40;35.20;;;;;;4974341;28;20227;-79
2022/03/01 13:57:23;;;;;;;9.88;5.85;;;13.40;34.40;;;;;;4974734;28;20073;-80
2022/03/01 14:00:01;;;;;;;9.65;6.07;;;13.30;34.40;;;;;;4973768;28;20129;-82
2022/03/01 14:02:29;;;;;;;8.88;6.10;;;13.20;34.90;;;;;;4974411;28;20137;-81
2022/03/01 14:05:01;;;;;;;9.20;5.93;;;13.20;34.30;;;;;;4976751;28;20058;-74
2022/03/01 14:07:29;;;;;;;8.15;5.32;;;13.10;34.30;;;;;;4977626;28;20551;-80
2022/03/01 14:09:56;;;;;;;9.45;6.13;;;13.10;34.20;;;;;;4978459;28;20133;-80
2022/03/01 14:12:36;;;;;;;9.45;6.10;;;13.30;35.00;;;;;;4978021;28;20051;-79
2022/03/01 14:15:04;;;;;;;10.00;6.50;;;13.60;34.80;;;;;;4973955;28;20043;-77
2022/03/01 14:17:33;;;;;;;12.75;7.07;;;13.90;34.20;;;;;;4956842;29;20126;-80
2022/03/01 14:20:01;;;;;;;10.32;6.55;;;13.90;34.80;;;;;;4956616;29;20481;-76
2022/03/01 14:22:29;;;;;;;9.15;6.20;;;13.90;33.90;;;;;;4956136;29;20055;-80
2022/03/01 14:24:58;;;;;;;11.60;6.03;;;13.90;33.10;;;;;;4956097;29;20093;-80
2022/03/01 14:27:26;;;;;;;8.95;5.75;;;14.00;33.60;;;;;;4956412;29;20055;-78
2022/03/01 14:29:54;;;;;;;8.70;6.13;;;14.40;33.80;;;;;;4956846;29;20062;-77
2022/03/01 14:32:21;;;;;;;11.07;6.20;;;14.70;33.30;;;;;;4956314;29;20055;-75
2022/03/01 14:34:49;;;;;;;10.18;5.82;;;15.80;32.30;;;;;;4956845;29;20055;-78
2022/03/01 14:37:17;;;;;;;9.50;5.75;;;17.70;32.30;;;;;;4960339;28;20047;-76
2022/03/01 14:39:44;;;;;;;8.30;5.75;;;19.50;30.90;;;;;;4970391;28;20142;-74
2022/03/01 14:42:11;;;;;;;8.93;6.32;;;;;;;;;;4967352;29;20082;-77
2022/03/01 14:44:38;;;;;;;10.68;6.60;;;;;;;;;;4963242;28;20079;-77
2022/03/01 14:47:06;;;;;;;9.63;6.28;;;;;;;;;;4959072;28;20126;-76
2022/03/01 14:49:37;;;;;;;8.60;6.13;;;;;;;;;;4958121;29;20435;-77
2022/03/01 14:52:06;;;;;;;9.23;6.20;;;28.00;25.70;;;;;;4972963;28;20057;-79
2022/03/01 14:54:34;;;;;;;8.98;6.63;;;28.60;25.60;;;;;;4977055;28;20482;-77
2022/03/01 14:57:02;;;;;;;9.20;6.80;;;29.60;24.50;;;;;;4977281;28;20055;-79
2022/03/01 14:59:29;;;;;;;10.07;6.57;;;29.10;23.40;;;;;;4955639;28;20051;-77
2022/03/01 15:01:56;;;;;;;9.27;6.43;;;;;;;;;;4936778;29;20122;-79
2022/03/01 15:04:23;;;;;;;9.73;7.03;;;27.80;23.70;;;;;;4936473;29;20047;-78
2022/03/01 15:06:51;;;;;;;10.23;6.45;;;27.50;24.20;;;;;;4936455;29;20047;-79
2022/03/01 15:09:19;;;;;;;8.57;6.43;;;27.40;24.30;;;;;;4936890;29;20051;-76
2022/03/01 15:11:47;;;;;;;9.90;6.20;;;27.40;24.20;;;;;;4953712;29;20062;-76
2022/03/01 15:14:14;;;;;;;8.95;5.93;;;27.40;24.30;;;;;;4956029;28;20478;-80
2022/03/01 15:16:41;;;;;;;9.30;6.18;;;27.20;24.20;;;;;;4954605;29;20142;-80
2022/03/01 15:19:08;;;;;;;8.38;5.90;;;25.90;23.90;;;;;;4955493;29;20058;-79
2022/03/01 15:21:35;;;;;;;9.25;6.05;;;25.80;24.30;;;;;;4955522;29;20416;-79
2022/03/01 15:24:03;;;;;;;9.05;6.82;;;25.30;24.40;;;;;;4955935;29;20059;-79
2022/03/01 15:26:32;;;;;;;14.63;10.00;;;24.60;24.60;;;;;;4955569;29;20051;-80
2022/03/01 15:28:59;;;;;;;10.00;7.57;;;24.00;24.80;;;;;;4953683;29;20047;-79
2022/03/01 15:31:26;;;;;;;11.25;7.80;;;23.60;24.90;;;;;;4955171;29;20058;-79
2022/03/01 15:33:53;;;;;;;9.35;7.18;;;23.30;25.20;;;;;;4954701;29;20134;-79
2022/03/01 15:36:20;;;;;;;9.63;6.65;;;23.40;25.70;;;;;;4955332;29;20061;-78
2022/03/01 15:38:48;;;;;;;9.07;6.55;;;23.00;25.00;;;;;;4955158;29;20044;-79
2022/03/01 15:41:15;;;;;;;8.98;6.50;;;22.90;25.40;;;;;;4951443;29;20059;-78
2022/03/01 15:43:43;;;;;;;10.43;6.93;;;22.10;25.70;;;;;;4954480;29;20063;-77
2022/03/01 15:46:11;;;;;;;9.55;6.60;;;21.20;26.10;;;;;;4954617;29;20047;-81
2022/03/01 15:48:38;;;;;;;8.77;6.57;;;20.40;26.10;;;;;;4955682;29;20049;-76
2022/03/01 15:51:05;;;;;;;10.40;6.43;;;19.60;26.60;;;;;;4953016;29;20058;-78
2022/03/01 15:53:33;;;;;;;9.20;6.40;;;18.80;27.00;;;;;;4946385;29;20048;-76
2022/03/01 15:56:00;;;;;;;9.38;6.03;;;18.20;27.40;;;;;;4942702;29;20052;-77
2022/03/01 15:58:27;;;;;;;10.77;6.90;;;17.70;28.00;;;;;;4949384;29;20055;-77
2022/03/01 16:00:56;;;;;;;9.77;6.75;;;17.20;28.40;;;;;;4963991;28;20058;-80
2022/03/01 16:03:23;;;;;;;9.30;7.00;;;16.90;28.60;;;;;;4969287;28;20047;-79
2022/03/01 16:05:50;;;;;;;9.60;6.22;;;16.80;29.10;;;;;;4964554;28;20055;-79
2022/03/01 16:08:18;;;;;;;10.73;7.32;;;;;;;;;;4960510;28;20047;-78
2022/03/01 16:10:45;;;;;;;10.68;6.95;;;19.10;43.10;;;;;;4962486;28;20061;-77
2022/03/01 16:13:13;;;;;;;11.20;7.30;;;20.10;32.30;;;;;;4958273;28;20309;-76
2022/03/01 16:15:42;;;;;;;10.23;6.63;;;21.60;27.10;;;;;;4961037;28;20054;-80
2022/03/01 16:18:10;;;;;;;10.57;6.80;;;22.30;27.10;;;;;;4961008;28;20055;-78
2022/03/01 16:20:38;;;;;;;8.63;6.03;;;22.10;26.50;;;;;;4970177;28;20061;-77
2022/03/01 16:23:05;;;;;;;8.60;5.95;;;21.70;26.90;;;;;;4957348;28;20043;-77
2022/03/01 16:25:32;;;;;;;9.93;6.35;;;21.20;26.40;;;;;;4967415;28;20103;-75
2022/03/01 16:27:59;;;;;;;9.02;5.97;;;20.40;26.70;;;;;;4953768;28;20396;-79
2022/03/01 16:30:27;;;;;;;9.18;5.72;;;19.40;27.10;;;;;;4959249;28;20043;-74
2022/03/01 16:32:54;;;;;;;8.93;6.43;;;18.40;27.50;;;;;;4961166;28;20472;-73
2022/03/01 16:35:22;;;;;;;9.93;5.93;;;17.50;28.10;;;;;;4972984;28;20078;-78
2022/03/01 16:37:50;;;;;;;10.50;6.65;;;16.60;28.70;;;;;;4960814;28;20047;-75
2022/03/01 16:40:17;;;;;;;8.55;6.28;;;16.30;30.00;;;;;;4954436;29;20065;-78
2022/03/01 16:42:44;;;;;;;9.15;5.95;;;15.20;29.90;;;;;;4963845;28;20407;-78
2022/03/01 16:45:11;;;;;;;10.10;6.85;;;14.50;30.50;;;;;;4953495;29;20143;-79
2022/03/01 16:47:39;;;;;;;10.02;6.05;;;13.90;31.20;;;;;;4954314;29;20134;-75
2022/03/01 16:50:09;;;;;;;13.43;7.75;;;13.40;32.00;;;;;;4953812;29;20158;-79
2022/03/01 16:52:39;;;;;;;13.35;7.45;;;12.90;32.80;;;;;;4953933;29;20141;-81
2022/03/01 16:55:08;;;;;;;11.80;7.45;;;12.60;33.40;;;;;;4953503;29;20070;-80
2022/03/01 16:57:35;;;;;;;11.27;7.35;;;12.20;34.00;;;;;;4951466;29;20047;-77
2022/03/01 17:00:04;;;;;;;12.85;7.95;;;11.90;34.40;;;;;;4962539;28;20050;-79
2022/03/01 17:02:34;;;;;;;12.10;7.45;;;11.60;34.90;;;;;;4973420;28;20051;-77
2022/03/01 17:05:01;;;;;;;13.10;7.72;;;11.30;35.30;;;;;;4972693;28;20050;-77
2022/03/01 17:07:28;;;;;;;12.48;7.95;;;11.00;35.70;;;;;;4972526;28;20518;-80
2022/03/01 17:09:56;;;;;;;12.93;8.15;;;10.80;36.10;;;;;;4972557;28;20514;-77
2022/03/01 17:12:24;;;;;;;12.43;7.80;;;10.60;36.30;;;;;;4973136;28;20061;-80
2022/03/01 17:14:51;;;;;;;12.55;7.93;;;10.40;36.50;;;;;;4972640;28;20062;-80
2022/03/01 17:17:18;;;;;;;12.35;7.70;;;10.20;36.90;;;;;;4972849;28;20054;-80
2022/03/01 17:19:46;;;;;;;12.25;7.68;;;10.00;37.10;;;;;;4961013;28;20054;-81
2022/03/01 17:22:13;;;;;;;13.10;7.35;;;9.80;37.40;;;;;;4961214;28;20531;-80
2022/03/01 17:24:40;;;;;;;13.60;7.75;;;9.70;37.60;;;;;;4956537;28;20085;-80
2022/03/01 17:27:08;;;;;;;12.38;6.85;;;9.50;38.20;;;;;;4956564;28;20057;-80
2022/03/01 17:29:35;;;;;;;10.73;6.95;;;9.30;38.60;;;;;;4972650;28;20057;-78
2022/03/01 17:32:06;;;;;;;10.60;6.47;;;9.10;38.90;;;;;;4972295;28;20082;-77
2022/03/01 17:34:34;;;;;;;11.35;6.53;;;9.00;39.20;;;;;;4972965;28;20501;-82
2022/03/01 17:37:01;;;;;;;11.70;6.97;;;8.90;39.70;;;;;;4972179;28;20051;-81
2022/03/01 17:39:28;;;;;;;12.18;6.90;;;8.70;40.50;;;;;;4971623;28;20054;-78
2022/03/01 17:41:55;;;;;;;12.23;6.15;;;8.70;40.70;;;;;;4972826;28;20129;-79